Time;durP1;ratioP1;P1;durP2;ratioP2;P2;SDS_P1;SDS_P2;PMS_P1;PMS_P2;Temp;Humidity;BMP_temperature;BMP_pressure;BME280_temperature;BME280_humidity;BME280_pressure;Samples;Min_cycle;Max_cycle;Signal;HPM_P1;HPM_P2
2023/04/29 05:09:44;;;;;;;1.90;1.77;;;8.00;78.00;;;;;;500199;27;20517;-72
2023/04/29 05:12:10;;;;;;;1.57;1.57;;;8.10;77.20;;;;;;4871555;29;20706;-72
2023/04/29 05:14:35;;;;;;;2.80;1.63;;;8.20;77.40;;;;;;4867605;29;20181;-71
2023/04/29 05:17:01;;;;;;;2.17;1.97;;;8.20;77.50;;;;;;4886209;29;20233;-72
2023/04/29 05:19:27;;;;;;;2.77;2.57;;;8.30;76.80;;;;;;4892736;29;21213;-72
2023/04/29 05:21:53;;;;;;;2.73;2.50;;;8.40;76.90;;;;;;4887097;29;20213;-72
2023/04/29 05:24:19;;;;;;;3.23;2.43;;;8.60;76.20;;;;;;4873512;29;20577;-73
2023/04/29 05:26:45;;;;;;;1.83;1.73;;;8.70;76.50;;;;;;4865118;29;20292;-72
2023/04/29 05:29:11;;;;;;;5.50;2.10;;;8.80;76.60;;;;;;4879354;29;20294;-73
2023/04/29 05:31:37;;;;;;;2.40;2.27;;;8.90;75.80;;;;;;4859685;29;20292;-72
2023/04/29 05:34:03;;;;;;;3.13;2.07;;;9.10;75.60;;;;;;4881609;29;20216;-73
2023/04/29 05:36:29;;;;;;;2.50;2.30;;;9.20;75.40;;;;;;4880162;29;20220;-72
2023/04/29 05:38:55;;;;;;;2.87;2.67;;;9.30;75.10;;;;;;4878463;29;20217;-74
2023/04/29 05:41:23;;;;;;;3.90;2.50;;;9.40;74.60;;;;;;4877549;29;20217;-73
2023/04/29 05:43:50;;;;;;;2.57;2.37;;;9.50;74.40;;;;;;4877380;29;20209;-73
2023/04/29 05:46:16;;;;;;;2.40;2.30;;;9.60;74.20;;;;;;4862368;29;21482;-71
2023/04/29 05:48:41;;;;;;;4.53;3.07;;;9.70;74.20;;;;;;4881270;29;20205;-73
2023/04/29 05:51:07;;;;;;;4.47;2.07;;;9.80;73.90;;;;;;4882307;29;20294;-73
2023/04/29 05:53:34;;;;;;;2.47;2.30;;;9.90;73.30;;;;;;4882077;29;21598;-72
2023/04/29 05:56:03;;;;;;;2.17;2.07;;;10.00;73.00;;;;;;4864879;29;20220;-71
2023/04/29 05:58:29;;;;;;;2.40;2.20;;;10.10;72.80;;;;;;4874705;29;20209;-72
2023/04/29 06:00:55;;;;;;;3.30;2.85;;;10.20;72.40;;;;;;4875405;29;20643;-73
2023/04/29 06:03:21;;;;;;;3.95;2.80;;;10.30;72.20;;;;;;4879773;29;20214;-74
2023/04/29 06:05:47;;;;;;;3.65;2.80;;;10.40;71.90;;;;;;4873879;29;20228;-74
2023/04/29 06:08:12;;;;;;;2.78;2.58;;;10.50;71.70;;;;;;4865490;29;20212;-73
2023/04/29 06:10:38;;;;;;;2.78;2.65;;;10.60;71.40;;;;;;4871001;29;20231;-71
2023/04/29 06:13:04;;;;;;;2.65;2.45;;;10.70;70.90;;;;;;4878027;29;20251;-72
2023/04/29 06:15:29;;;;;;;2.60;2.45;;;10.80;71.00;;;;;;4873054;29;20861;-73
2023/04/29 06:17:55;;;;;;;2.60;2.40;;;10.90;70.60;;;;;;4878674;29;20201;-74
2023/04/29 06:20:21;;;;;;;3.03;2.80;;;10.90;71.20;;;;;;4876612;29;20233;-74
2023/04/29 06:22:46;;;;;;;3.55;3.25;;;10.90;70.60;;;;;;4879941;29;20196;-75
2023/04/29 06:25:13;;;;;;;3.25;3.03;;;10.80;70.50;;;;;;4874924;29;20212;-73
2023/04/29 06:27:38;;;;;;;2.70;2.50;;;10.80;71.00;;;;;;4859490;29;20208;-72
2023/04/29 06:30:04;;;;;;;2.67;2.45;;;10.80;70.90;;;;;;4878065;29;20868;-72
2023/04/29 06:32:30;;;;;;;3.15;2.95;;;10.70;71.30;;;;;;4875764;29;21874;-73
2023/04/29 06:34:56;;;;;;;2.95;2.75;;;10.80;71.50;;;;;;4875483;29;20213;-73
2023/04/29 06:37:21;;;;;;;3.75;2.75;;;10.80;71.00;;;;;;4879516;29;20995;-72
2023/04/29 06:39:47;;;;;;;3.20;3.00;;;10.80;71.40;;;;;;4890999;29;20276;-72
2023/04/29 06:42:13;;;;;;;3.97;3.58;;;10.80;71.50;;;;;;4890674;29;20193;-72
2023/04/29 06:44:38;;;;;;;3.60;3.38;;;10.80;71.20;;;;;;4892090;29;20205;-71
2023/04/29 06:47:04;;;;;;;3.25;3.05;;;10.90;70.60;;;;;;4891348;29;20188;-73
2023/04/29 06:49:30;;;;;;;4.10;3.90;;;10.90;70.60;;;;;;4863700;29;20705;-72
2023/04/29 06:51:55;;;;;;;3.60;3.30;;;10.90;70.60;;;;;;4870144;29;20611;-76
2023/04/29 06:54:21;;;;;;;3.47;3.08;;;10.90;70.40;;;;;;4875940;29;20217;-72
2023/04/29 06:56:47;;;;;;;3.05;2.85;;;10.90;70.50;;;;;;4871455;29;20292;-72
2023/04/29 06:59:14;;;;;;;2.58;2.40;;;11.00;70.70;;;;;;4876969;29;20709;-72
2023/04/29 07:01:40;;;;;;;3.47;3.15;;;11.00;70.50;;;;;;4859163;29;21087;-70
2023/04/29 07:04:05;;;;;;;2.65;2.55;;;11.00;70.50;;;;;;4874827;29;20269;-75
2023/04/29 07:06:31;;;;;;;3.17;2.90;;;11.00;70.00;;;;;;4876647;29;20724;-71
2023/04/29 07:08:57;;;;;;;2.83;2.63;;;11.00;70.00;;;;;;4857915;29;20610;-73
2023/04/29 07:11:23;;;;;;;2.65;2.45;;;11.00;70.00;;;;;;4877295;29;20992;-71
2023/04/29 07:13:52;;;;;;;2.38;2.30;;;11.00;70.00;;;;;;4856774;29;20220;-72
2023/04/29 07:16:20;;;;;;;3.20;3.00;;;11.00;69.90;;;;;;4860644;29;20213;-72
2023/04/29 07:18:47;;;;;;;2.95;2.75;;;11.00;70.00;;;;;;4873313;29;20708;-72
2023/04/29 07:21:13;;;;;;;4.07;2.88;;;11.10;70.20;;;;;;4859951;29;20204;-73
2023/04/29 07:23:39;;;;;;;3.38;3.08;;;11.00;70.40;;;;;;4875115;29;20205;-72
2023/04/29 07:26:15;;;;;;;3.05;2.85;;;11.00;70.60;;;;;;4861665;29;20235;-73
2023/04/29 07:28:42;;;;;;;2.58;2.38;;;11.10;70.40;;;;;;4874962;29;20324;-71
2023/04/29 07:31:08;;;;;;;2.38;2.25;;;11.10;70.10;;;;;;4875602;29;20729;-73
2023/04/29 07:33:34;;;;;;;3.58;2.30;;;11.10;69.80;;;;;;4859815;29;20861;-73
2023/04/29 07:36:01;;;;;;;4.97;2.80;;;11.10;69.60;;;;;;4876192;29;20212;-71
2023/04/29 07:38:28;;;;;;;3.20;2.47;;;11.10;69.20;;;;;;4872693;29;20242;-72
2023/04/29 07:40:54;;;;;;;2.60;2.50;;;11.10;69.20;;;;;;4854455;29;20209;-72
2023/04/29 07:43:20;;;;;;;4.28;2.58;;;11.30;69.60;;;;;;4875994;29;20205;-73
2023/04/29 07:45:46;;;;;;;3.47;2.38;;;11.50;69.60;;;;;;4858715;29;20220;-73
2023/04/29 07:48:12;;;;;;;3.00;2.80;;;11.80;69.90;;;;;;4877622;29;20205;-72
2023/04/29 07:50:38;;;;;;;3.45;2.78;;;12.10;68.90;;;;;;4873051;29;20229;-74
2023/04/29 07:53:04;;;;;;;2.58;2.45;;;12.30;68.70;;;;;;4861911;29;20209;-72
2023/04/29 07:55:30;;;;;;;2.97;2.38;;;12.60;67.60;;;;;;4874113;29;20237;-73
2023/04/29 07:57:56;;;;;;;2.78;2.58;;;12.90;67.10;;;;;;4875307;29;20658;-76
2023/04/29 08:00:23;;;;;;;2.33;2.17;;;13.20;66.10;;;;;;4872604;29;20214;-70
2023/04/29 08:02:55;;;;;;;3.38;2.67;;;13.40;64.80;;;;;;4876557;29;20209;-72
2023/04/29 08:05:23;;;;;;;2.80;2.60;;;13.60;65.40;;;;;;4857953;29;20217;-72
2023/04/29 08:07:50;;;;;;;2.90;2.67;;;13.80;65.10;;;;;;4850724;29;20201;-72
2023/04/29 08:10:16;;;;;;;2.30;2.20;;;14.10;64.40;;;;;;4855335;29;20287;-73
2023/04/29 08:12:45;;;;;;;4.03;3.00;;;14.30;64.00;;;;;;4872004;29;20289;-72
2023/04/29 08:15:17;;;;;;;2.58;2.38;;;14.50;63.10;;;;;;4868303;29;20212;-72
2023/04/29 08:17:43;;;;;;;3.10;2.65;;;14.70;61.50;;;;;;4855316;29;20292;-73
2023/04/29 08:20:09;;;;;;;5.10;2.42;;;14.90;62.20;;;;;;4872762;29;20257;-74
2023/04/29 08:22:35;;;;;;;2.40;2.22;;;15.10;62.90;;;;;;4859698;29;20278;-76
2023/04/29 08:25:02;;;;;;;2.70;2.53;;;15.30;62.60;;;;;;4871510;29;20212;-73
2023/04/29 08:27:27;;;;;;;2.40;2.30;;;15.50;61.40;;;;;;4874212;29;20627;-75
2023/04/29 08:29:54;;;;;;;2.83;2.72;;;15.80;60.80;;;;;;4874831;29;20219;-73
2023/04/29 08:32:20;;;;;;;4.22;3.28;;;16.00;59.10;;;;;;4868855;29;20783;-74
2023/04/29 08:34:46;;;;;;;2.75;2.60;;;15.60;58.90;;;;;;4855096;29;20846;-71
2023/04/29 08:37:12;;;;;;;3.15;2.95;;;15.80;59.90;;;;;;4867625;29;20212;-73
2023/04/29 08:39:37;;;;;;;3.10;2.90;;;15.70;59.00;;;;;;4842521;29;20217;-74
2023/04/29 08:42:09;;;;;;;4.82;3.28;;;15.80;57.80;;;;;;4860969;29;20257;-75
2023/04/29 08:44:35;;;;;;;2.50;2.38;;;15.80;58.70;;;;;;4874367;29;20622;-74
2023/04/29 08:47:02;;;;;;;5.07;2.30;;;15.90;58.30;;;;;;4862947;29;20753;-72
2023/04/29 08:49:28;;;;;;;2.95;2.50;;;16.10;57.80;;;;;;4869367;29;20209;-74
2023/04/29 08:51:54;;;;;;;1.88;1.88;;;16.10;56.80;;;;;;4855870;29;20732;-73
2023/04/29 08:54:20;;;;;;;3.08;2.20;;;16.30;58.10;;;;;;4869061;29;20214;-73
2023/04/29 08:56:46;;;;;;;2.47;2.38;;;16.50;57.80;;;;;;4871759;29;20212;-72
2023/04/29 08:59:15;;;;;;;2.47;2.38;;;16.80;57.70;;;;;;4872915;29;20272;-74
2023/04/29 09:01:43;;;;;;;3.65;2.22;;;17.10;56.90;;;;;;4858347;29;20209;-72
2023/04/29 09:04:15;;;;;;;3.15;1.67;;;17.50;55.30;;;;;;4863885;29;20188;-74
2023/04/29 09:06:40;;;;;;;1.90;1.80;;;17.70;55.30;;;;;;4883531;29;20193;-73
2023/04/29 09:09:06;;;;;;;2.10;2.00;;;18.10;55.10;;;;;;4886182;29;20191;-73
2023/04/29 09:11:33;;;;;;;2.45;2.35;;;18.30;54.70;;;;;;4885300;29;20229;-73
2023/04/29 09:14:09;;;;;;;2.42;2.33;;;18.60;54.20;;;;;;4868100;29;20192;-73
2023/04/29 09:16:37;;;;;;;3.17;2.28;;;18.70;54.50;;;;;;4877251;29;20221;-73
2023/04/29 09:19:02;;;;;;;2.20;2.10;;;18.70;54.20;;;;;;4873166;29;20763;-71
2023/04/29 09:21:32;;;;;;;3.33;2.42;;;18.80;53.30;;;;;;4864656;29;21024;-71
2023/04/29 09:24:03;;;;;;;2.25;2.10;;;19.00;54.00;;;;;;4865034;29;20217;-74
2023/04/29 09:26:41;;;;;;;3.15;2.75;;;19.30;53.60;;;;;;4877416;29;20213;-73
2023/04/29 09:29:14;;;;;;;2.85;2.28;;;19.40;52.80;;;;;;4864551;29;20191;-73
2023/04/29 09:31:41;;;;;;;2.40;2.22;;;19.40;52.40;;;;;;4872584;29;20221;-72
2023/04/29 09:34:07;;;;;;;2.78;2.67;;;19.60;52.80;;;;;;4889580;29;20277;-73
2023/04/29 09:36:50;;;;;;;3.25;2.55;;;20.00;51.80;;;;;;4881601;29;20271;-76
2023/04/29 09:39:21;;;;;;;4.32;2.20;;;20.70;51.70;;;;;;4888957;29;20193;-73
2023/04/29 09:41:52;;;;;;;3.90;3.00;;;21.30;50.20;;;;;;4891061;29;20309;-74
2023/04/29 09:44:18;;;;;;;3.17;2.92;;;22.00;49.40;;;;;;4887107;29;20616;-75
2023/04/29 09:46:56;;;;;;;2.28;2.17;;;22.50;48.30;;;;;;4891868;29;20177;-73
2023/04/29 09:49:34;;;;;;;3.00;2.80;;;23.10;46.90;;;;;;4872326;29;20201;-74
2023/04/29 09:52:02;;;;;;;4.40;3.13;;;23.60;46.00;;;;;;4865419;29;20220;-75
2023/04/29 09:54:31;;;;;;;4.20;3.05;;;24.00;46.00;;;;;;4859102;29;20224;-74
2023/04/29 09:56:59;;;;;;;3.72;3.17;;;24.70;45.40;;;;;;4875938;29;20246;-73
2023/04/29 09:59:25;;;;;;;3.47;2.90;;;25.30;44.90;;;;;;4888047;29;20185;-74
2023/04/29 10:01:55;;;;;;;3.63;3.33;;;25.80;43.90;;;;;;4892793;29;20280;-73
2023/04/29 10:04:25;;;;;;;5.38;3.55;;;26.00;42.80;;;;;;4873684;29;20200;-72
2023/04/29 10:06:53;;;;;;;4.25;3.80;;;25.00;42.60;;;;;;4887448;29;20253;-74
2023/04/29 10:09:20;;;;;;;3.28;3.17;;;24.40;44.50;;;;;;4891764;29;20196;-73
2023/04/29 10:11:50;;;;;;;3.15;2.75;;;23.70;45.10;;;;;;4884470;29;20699;-73
2023/04/29 10:14:18;;;;;;;3.40;2.85;;;23.40;45.00;;;;;;4880487;29;20594;-73
2023/04/29 10:17:07;;;;;;;2.78;2.42;;;23.30;44.90;;;;;;4885925;29;20625;-73
2023/04/29 10:19:37;;;;;;;2.92;2.70;;;23.30;45.00;;;;;;4875290;29;20679;-72
2023/04/29 10:22:08;;;;;;;2.53;2.50;;;23.40;45.50;;;;;;4885832;29;20188;-74
2023/04/29 10:24:38;;;;;;;3.45;2.08;;;23.50;46.00;;;;;;4866925;29;20691;-74
2023/04/29 10:27:13;;;;;;;3.47;2.53;;;23.70;45.00;;;;;;4859908;29;20269;-73
2023/04/29 10:29:40;;;;;;;2.50;2.40;;;23.80;44.60;;;;;;4876510;29;20233;-73
2023/04/29 10:32:11;;;;;;;2.70;2.35;;;23.90;44.40;;;;;;4860924;29;20224;-74
2023/04/29 10:34:39;;;;;;;1.98;1.98;;;23.90;44.70;;;;;;4849150;29;20210;-74
2023/04/29 10:37:08;;;;;;;2.42;1.80;;;23.90;45.60;;;;;;4855880;29;20281;-74
2023/04/29 10:39:47;;;;;;;2.45;2.20;;;23.60;44.40;;;;;;4872313;29;20213;-75
2023/04/29 10:42:46;;;;;;;2.42;2.22;;;23.20;46.00;;;;;;4876276;29;20220;-76
2023/04/29 10:45:26;;;;;;;2.20;2.10;;;23.00;46.00;;;;;;4852328;29;20189;-73
2023/04/29 10:48:01;;;;;;;1.95;1.85;;;22.90;46.10;;;;;;4890980;29;20574;-73
2023/04/29 10:50:47;;;;;;;3.10;2.20;;;22.70;45.60;;;;;;4871725;29;20220;-74
2023/04/29 10:53:14;;;;;;;2.20;2.10;;;22.30;46.50;;;;;;4875717;29;20220;-73
2023/04/29 10:55:40;;;;;;;2.10;1.42;;;22.40;47.50;;;;;;4887536;29;20192;-73
2023/04/29 10:58:34;;;;;;;1.67;1.58;;;22.50;47.20;;;;;;4891067;29;20215;-73
2023/04/29 11:01:00;;;;;;;1.85;1.42;;;22.50;47.20;;;;;;4876371;29;20276;-74
2023/04/29 11:03:57;;;;;;;1.90;1.65;;;22.50;46.50;;;;;;4872589;29;20205;-73
2023/04/29 11:06:40;;;;;;;1.60;1.30;;;22.50;46.50;;;;;;4869076;29;20181;-74
2023/04/29 11:09:13;;;;;;;1.67;1.27;;;22.40;46.30;;;;;;4871709;29;20197;-73
2023/04/29 11:11:43;;;;;;;1.38;1.38;;;22.30;47.00;;;;;;4886761;29;20349;-73
2023/04/29 11:14:12;;;;;;;1.40;1.35;;;22.30;48.00;;;;;;4890000;29;20177;-73
2023/04/29 11:16:47;;;;;;;1.30;1.30;;;21.90;45.60;;;;;;4888222;29;20276;-74
2023/04/29 11:19:16;;;;;;;1.50;1.33;;;21.20;44.30;;;;;;4852727;29;20358;-77
2023/04/29 11:21:45;;;;;;;1.80;1.15;;;20.50;45.20;;;;;;4871364;29;20209;-74
2023/04/29 11:24:11;;;;;;;3.30;1.10;;;20.00;46.20;;;;;;4872238;29;20268;-74
2023/04/29 11:26:37;;;;;;;1.00;1.00;;;19.90;47.20;;;;;;4873847;29;20185;-73
2023/04/29 11:29:04;;;;;;;1.00;0.95;;;19.60;46.10;;;;;;4882362;29;20703;-72
2023/04/29 11:31:31;;;;;;;0.57;0.57;;;19.60;47.40;;;;;;4888906;29;20209;-73
2023/04/29 11:33:57;;;;;;;0.60;0.60;;;19.60;46.10;;;;;;4882357;29;20240;-73
2023/04/29 11:36:23;;;;;;;2.42;0.70;;;19.60;45.40;;;;;;4888448;29;20239;-73
2023/04/29 11:38:49;;;;;;;1.88;0.80;;;19.40;45.60;;;;;;4888622;29;20190;-73
2023/04/29 11:41:15;;;;;;;0.73;0.73;;;19.30;46.70;;;;;;4888145;29;20192;-73
2023/04/29 11:43:42;;;;;;;0.57;0.57;;;18.90;47.30;;;;;;4888127;29;20200;-73
2023/04/29 11:46:12;;;;;;;0.68;0.60;;;18.90;47.50;;;;;;4875001;29;20500;-72
2023/04/29 11:48:46;;;;;;;0.82;0.82;;;18.90;47.60;;;;;;4886839;29;20185;-72
2023/04/29 11:51:13;;;;;;;0.80;0.80;;;18.90;47.20;;;;;;4862290;29;20225;-74
2023/04/29 11:53:39;;;;;;;1.48;0.70;;;18.70;46.90;;;;;;4872025;29;20176;-74
2023/04/29 11:56:05;;;;;;;0.60;0.60;;;18.40;47.90;;;;;;4886900;29;20184;-74
2023/04/29 11:58:30;;;;;;;1.23;0.90;;;18.40;48.20;;;;;;4883056;29;20704;-74
2023/04/29 12:00:58;;;;;;;0.80;0.80;;;18.30;47.10;;;;;;4890823;29;20201;-74
2023/04/29 12:03:23;;;;;;;0.60;0.60;;;18.00;48.60;;;;;;4887442;29;20193;-73
2023/04/29 12:05:53;;;;;;;1.25;0.77;;;17.90;49.70;;;;;;4889479;29;20303;-73
2023/04/29 12:08:24;;;;;;;0.60;0.60;;;17.90;49.60;;;;;;4871486;29;20189;-73
2023/04/29 12:10:51;;;;;;;0.75;0.75;;;17.80;49.90;;;;;;4872209;29;20299;-73
2023/04/29 12:13:17;;;;;;;0.73;0.73;;;17.80;50.90;;;;;;4888952;29;20801;-73
2023/04/29 12:15:45;;;;;;;0.95;0.95;;;17.70;49.60;;;;;;4855904;29;20754;-75
2023/04/29 12:18:12;;;;;;;1.85;0.73;;;17.70;50.70;;;;;;4868973;29;20189;-74
2023/04/29 12:20:38;;;;;;;0.93;0.93;;;17.70;51.00;;;;;;4888411;29;20195;-74
2023/04/29 12:23:34;;;;;;;0.70;0.70;;;17.70;50.80;;;;;;4886617;29;20194;-74
2023/04/29 12:26:01;;;;;;;0.70;0.70;;;17.60;51.30;;;;;;4872497;29;20286;-74
2023/04/29 12:28:27;;;;;;;0.80;0.70;;;17.60;51.60;;;;;;4872000;29;20213;-73
2023/04/29 12:30:53;;;;;;;0.80;0.70;;;17.50;51.80;;;;;;4881166;29;20312;-73
2023/04/29 12:33:20;;;;;;;0.50;0.50;;;17.60;52.00;;;;;;4886736;29;20249;-72
2023/04/29 12:35:48;;;;;;;1.33;0.60;;;17.60;52.60;;;;;;4871080;29;20181;-72
2023/04/29 12:38:18;;;;;;;0.80;0.80;;;17.50;52.90;;;;;;4868428;29;20211;-72
2023/04/29 12:40:44;;;;;;;0.70;0.70;;;17.40;53.10;;;;;;4883083;29;20205;-72
2023/04/29 12:43:10;;;;;;;1.00;0.80;;;17.30;53.80;;;;;;4868126;29;20237;-73
2023/04/29 12:45:38;;;;;;;0.70;0.70;;;17.30;53.70;;;;;;4880550;29;20238;-73
2023/04/29 12:48:04;;;;;;;1.95;0.80;;;17.40;53.50;;;;;;4884984;29;20188;-72
2023/04/29 12:50:34;;;;;;;1.55;0.75;;;17.50;53.30;;;;;;4871026;29;20620;-72
2023/04/29 12:53:02;;;;;;;1.08;0.95;;;17.50;52.80;;;;;;4871816;29;20191;-73
2023/04/29 12:55:28;;;;;;;0.80;0.80;;;17.50;53.10;;;;;;4888089;29;20182;-73
2023/04/29 12:57:54;;;;;;;1.20;0.90;;;17.70;53.40;;;;;;4888233;29;20286;-73
2023/04/29 13:00:19;;;;;;;0.80;0.80;;;17.80;53.10;;;;;;4882071;29;20271;-74
2023/04/29 13:02:46;;;;;;;2.90;1.13;;;17.70;52.70;;;;;;4885755;29;20212;-75
2023/04/29 13:05:12;;;;;;;0.85;0.80;;;17.80;52.80;;;;;;4887324;29;20212;-73
2023/04/29 13:07:38;;;;;;;2.40;0.88;;;17.90;52.50;;;;;;4892141;29;20210;-74
2023/04/29 13:10:05;;;;;;;0.70;0.70;;;18.00;52.50;;;;;;4874534;29;20193;-73
2023/04/29 13:12:34;;;;;;;0.57;0.57;;;18.20;53.10;;;;;;4884682;29;20236;-72
2023/04/29 13:14:59;;;;;;;0.95;0.57;;;18.30;52.90;;;;;;4872704;29;20183;-75
2023/04/29 13:17:25;;;;;;;1.52;0.77;;;18.50;52.50;;;;;;4876204;29;20687;-75
2023/04/29 13:19:50;;;;;;;0.60;0.60;;;18.70;52.20;;;;;;4889118;29;20671;-75
2023/04/29 13:22:16;;;;;;;0.60;0.60;;;19.00;51.90;;;;;;4885996;29;20240;-78
2023/04/29 13:24:42;;;;;;;1.65;0.60;;;19.20;51.70;;;;;;4891534;29;20245;-74
2023/04/29 13:27:08;;;;;;;0.80;0.80;;;19.40;52.40;;;;;;4890412;29;20268;-74
2023/04/29 13:29:34;;;;;;;0.60;0.60;;;19.60;52.00;;;;;;4862709;29;20279;-73
2023/04/29 13:32:00;;;;;;;0.50;0.50;;;19.70;52.30;;;;;;4886282;29;20332;-74
2023/04/29 13:34:26;;;;;;;0.45;0.45;;;20.00;52.50;;;;;;4888804;29;20182;-74
2023/04/29 13:36:51;;;;;;;0.60;0.60;;;20.20;51.80;;;;;;4884365;29;20193;-74
2023/04/29 13:39:18;;;;;;;0.70;0.70;;;20.30;50.70;;;;;;4882094;29;20211;-74
2023/04/29 13:41:45;;;;;;;0.40;0.40;;;20.50;50.40;;;;;;4876169;29;20200;-73
2023/04/29 13:44:11;;;;;;;0.40;0.40;;;20.30;50.80;;;;;;4872877;29;20189;-74
2023/04/29 13:46:37;;;;;;;0.70;0.70;;;20.40;51.80;;;;;;4872692;29;20253;-72
2023/04/29 13:49:02;;;;;;;0.45;0.45;;;20.50;51.20;;;;;;4873010;29;20189;-72
2023/04/29 13:51:28;;;;;;;0.40;0.40;;;20.50;51.90;;;;;;4887211;29;20197;-74
2023/04/29 13:53:57;;;;;;;0.55;0.55;;;20.50;51.40;;;;;;4883684;29;20196;-75
2023/04/29 13:56:24;;;;;;;0.50;0.50;;;20.50;51.80;;;;;;4884443;29;20240;-73
2023/04/29 13:58:51;;;;;;;0.50;0.50;;;20.70;51.70;;;;;;4873707;29;20196;-72
2023/04/29 14:01:17;;;;;;;0.85;0.50;;;21.10;52.00;;;;;;4872239;29;20188;-72
2023/04/29 14:03:43;;;;;;;0.50;0.50;;;21.50;51.80;;;;;;4891615;29;20589;-73
2023/04/29 14:06:09;;;;;;;0.40;0.38;;;22.10;50.30;;;;;;4871871;29;20240;-73
2023/04/29 14:08:34;;;;;;;0.45;0.45;;;22.70;50.30;;;;;;4871908;29;20272;-72
2023/04/29 14:11:00;;;;;;;0.65;0.65;;;23.40;49.30;;;;;;4882673;29;20320;-76
2023/04/29 14:13:26;;;;;;;0.50;0.50;;;24.00;48.10;;;;;;4874222;29;20299;-74
2023/04/29 14:15:53;;;;;;;1.08;0.60;;;24.50;47.00;;;;;;4872168;29;20299;-75
2023/04/29 14:18:19;;;;;;;0.60;0.60;;;24.90;46.10;;;;;;4859053;29;20212;-74
2023/04/29 14:20:45;;;;;;;0.52;0.52;;;25.10;45.80;;;;;;4872603;29;20208;-74
2023/04/29 14:23:10;;;;;;;0.65;0.65;;;24.90;45.40;;;;;;4872612;29;20590;-73
2023/04/29 14:25:36;;;;;;;1.48;0.70;;;24.80;45.60;;;;;;4890039;29;20188;-73
2023/04/29 14:28:02;;;;;;;1.20;0.45;;;24.50;46.30;;;;;;4880814;29;20292;-74
2023/04/29 14:30:28;;;;;;;0.52;0.52;;;24.30;47.00;;;;;;4882003;29;20256;-76
2023/04/29 14:32:54;;;;;;;0.70;0.70;;;24.10;47.30;;;;;;4871607;29;20263;-73
2023/04/29 14:35:20;;;;;;;0.73;0.68;;;23.80;46.90;;;;;;4873030;29;20205;-76
2023/04/29 14:37:46;;;;;;;1.20;0.60;;;23.20;48.20;;;;;;4869287;29;20217;-74
2023/04/29 14:40:12;;;;;;;1.30;0.80;;;22.50;48.40;;;;;;4875918;29;20201;-75
2023/04/29 14:42:37;;;;;;;0.82;0.82;;;22.10;50.10;;;;;;4877234;29;20312;-75
2023/04/29 14:45:03;;;;;;;1.13;0.98;;;21.50;50.00;;;;;;4879084;29;20783;-74
2023/04/29 14:47:29;;;;;;;2.15;0.80;;;20.80;51.30;;;;;;4868837;29;20249;-71
2023/04/29 14:49:55;;;;;;;0.80;0.80;;;20.30;52.10;;;;;;4850342;29;20304;-73
2023/04/29 14:52:21;;;;;;;0.80;0.80;;;20.20;53.00;;;;;;4882642;29;20241;-73
2023/04/29 14:54:46;;;;;;;2.15;1.10;;;20.50;52.60;;;;;;4890327;29;20193;-73
2023/04/29 14:57:12;;;;;;;1.33;0.90;;;20.60;52.00;;;;;;4888466;29;20201;-72
2023/04/29 14:59:38;;;;;;;1.02;1.02;;;20.50;51.30;;;;;;4886029;29;20181;-74
2023/04/29 15:02:04;;;;;;;1.48;1.38;;;20.30;52.30;;;;;;4882476;29;20400;-74
2023/04/29 15:04:29;;;;;;;1.10;1.10;;;20.30;52.70;;;;;;4885726;29;20253;-72
2023/04/29 15:06:56;;;;;;;2.15;1.35;;;20.30;52.10;;;;;;4862520;29;20227;-73
2023/04/29 15:09:23;;;;;;;1.23;1.13;;;20.10;52.10;;;;;;4875912;29;20754;-72
2023/04/29 15:11:48;;;;;;;0.93;0.77;;;20.00;52.80;;;;;;4885418;29;20889;-74
2023/04/29 15:14:14;;;;;;;1.95;0.88;;;19.50;52.80;;;;;;4880966;29;20304;-73
2023/04/29 15:16:40;;;;;;;1.00;1.00;;;19.20;53.60;;;;;;4885960;29;20213;-74
2023/04/29 15:19:06;;;;;;;0.95;0.93;;;19.30;54.20;;;;;;4854884;29;20589;-73
2023/04/29 15:21:31;;;;;;;1.63;1.10;;;19.00;53.50;;;;;;4869886;29;21573;-74
2023/04/29 15:23:57;;;;;;;0.85;0.85;;;18.80;54.00;;;;;;4871078;29;20720;-73
2023/04/29 15:26:23;;;;;;;0.82;0.82;;;18.60;54.20;;;;;;4873889;29;20221;-73
2023/04/29 15:28:48;;;;;;;1.13;1.13;;;18.40;54.30;;;;;;4870361;29;20205;-74
2023/04/29 15:31:14;;;;;;;1.02;1.02;;;18.30;55.10;;;;;;4876253;29;20260;-73
2023/04/29 15:33:40;;;;;;;1.40;0.82;;;17.90;55.40;;;;;;4879023;29;20213;-73
2023/04/29 15:36:06;;;;;;;0.70;0.70;;;17.80;55.20;;;;;;4879938;29;20648;-74
2023/04/29 15:38:31;;;;;;;2.45;1.20;;;17.80;55.50;;;;;;4883095;29;20185;-74
2023/04/29 15:41:00;;;;;;;0.90;0.90;;;17.60;55.80;;;;;;4886197;29;20266;-74
2023/04/29 15:43:31;;;;;;;1.30;1.20;;;17.40;55.90;;;;;;4866776;29;20197;-74
2023/04/29 15:45:58;;;;;;;1.02;1.02;;;17.50;56.30;;;;;;4869461;29;20257;-72
2023/04/29 15:48:24;;;;;;;1.35;0.93;;;17.40;56.40;;;;;;4880258;29;20295;-74
2023/04/29 15:50:49;;;;;;;0.82;0.82;;;17.50;56.40;;;;;;4887408;29;20213;-73
2023/04/29 15:53:15;;;;;;;0.90;0.90;;;17.40;56.60;;;;;;4884274;29;20184;-77
2023/04/29 15:55:40;;;;;;;0.98;0.98;;;17.30;56.60;;;;;;4888724;29;20185;-73
2023/04/29 15:58:06;;;;;;;1.00;1.00;;;17.10;56.90;;;;;;4884357;29;20314;-73
2023/04/29 16:00:32;;;;;;;1.02;1.02;;;17.00;57.20;;;;;;4888950;29;20216;-73
2023/04/29 16:02:58;;;;;;;0.98;0.98;;;16.90;57.60;;;;;;4887930;29;20180;-74
2023/04/29 16:05:24;;;;;;;2.83;1.02;;;16.90;57.40;;;;;;4868029;29;20292;-73
2023/04/29 16:07:49;;;;;;;0.80;0.80;;;17.00;57.50;;;;;;4878661;29;20288;-75
2023/04/29 16:10:15;;;;;;;1.13;1.13;;;16.90;57.60;;;;;;4869170;29;20673;-75
2023/04/29 16:12:41;;;;;;;1.77;0.90;;;17.10;57.90;;;;;;4880054;29;20219;-74
2023/04/29 16:15:08;;;;;;;2.65;1.00;;;17.00;57.40;;;;;;4864231;29;20185;-74
2023/04/29 16:17:34;;;;;;;3.35;1.20;;;16.90;57.10;;;;;;4885742;29;20693;-74
2023/04/29 16:20:00;;;;;;;0.88;0.88;;;16.70;57.60;;;;;;4887803;29;20220;-74
2023/04/29 16:22:26;;;;;;;1.05;1.05;;;16.60;57.90;;;;;;4870157;29;20582;-75
2023/04/29 16:24:52;;;;;;;1.10;1.10;;;16.50;58.40;;;;;;4873202;29;20181;-74
2023/04/29 16:27:18;;;;;;;1.50;0.95;;;16.50;58.50;;;;;;4877420;29;20217;-75
2023/04/29 16:29:44;;;;;;;1.10;1.10;;;16.40;58.80;;;;;;4875992;29;20197;-74
2023/04/29 16:32:10;;;;;;;0.88;0.88;;;16.50;58.90;;;;;;4878093;29;20245;-74
2023/04/29 16:34:36;;;;;;;2.05;1.42;;;16.50;59.00;;;;;;4884379;29;20268;-75
2023/04/29 16:37:02;;;;;;;1.48;1.38;;;16.40;59.20;;;;;;4879356;29;20276;-75
2023/04/29 16:39:28;;;;;;;3.30;1.15;;;16.50;59.20;;;;;;4860469;29;20209;-75
2023/04/29 16:41:54;;;;;;;2.83;1.20;;;16.50;59.40;;;;;;4862617;29;20204;-75
2023/04/29 16:44:20;;;;;;;1.10;1.00;;;16.30;59.60;;;;;;4848590;29;20232;-75
2023/04/29 16:46:45;;;;;;;2.92;1.02;;;16.20;59.90;;;;;;4873066;29;20257;-75
2023/04/29 16:49:11;;;;;;;1.02;1.02;;;16.10;60.80;;;;;;4874228;29;20237;-75
2023/04/29 16:51:37;;;;;;;1.30;1.20;;;16.10;61.80;;;;;;4880240;29;20276;-75
2023/04/29 16:54:03;;;;;;;1.60;1.45;;;16.20;62.80;;;;;;4856216;29;20202;-75
2023/04/29 16:56:28;;;;;;;2.17;1.10;;;16.30;64.40;;;;;;4869300;29;20205;-75
2023/04/29 16:58:54;;;;;;;3.95;1.23;;;16.40;64.30;;;;;;4880445;29;20178;-75
2023/04/29 17:01:20;;;;;;;0.95;0.95;;;16.50;64.20;;;;;;4879335;29;20192;-75
2023/04/29 17:03:46;;;;;;;1.48;1.38;;;16.50;65.40;;;;;;4884212;29;20264;-75
2023/04/29 17:06:14;;;;;;;1.55;1.45;;;16.40;66.80;;;;;;4881919;29;20190;-75
2023/04/29 17:08:40;;;;;;;1.67;1.30;;;16.40;65.70;;;;;;4877642;29;20610;-75
2023/04/29 17:11:06;;;;;;;1.42;1.33;;;16.30;65.80;;;;;;4882810;29;20284;-74
2023/04/29 17:13:31;;;;;;;1.05;1.05;;;16.20;66.10;;;;;;4874680;29;20221;-74
2023/04/29 17:15:57;;;;;;;0.80;0.80;;;16.20;64.80;;;;;;4879653;29;20719;-74
2023/04/29 17:18:23;;;;;;;1.25;1.25;;;16.00;64.50;;;;;;4880604;29;20584;-75
2023/04/29 17:20:48;;;;;;;1.65;1.63;;;15.80;65.70;;;;;;4877991;29;20273;-75
2023/04/29 17:23:14;;;;;;;1.83;1.27;;;15.60;66.20;;;;;;4880334;29;20185;-74
2023/04/29 17:25:40;;;;;;;1.30;1.30;;;15.60;66.60;;;;;;4866971;29;20198;-75
2023/04/29 17:28:06;;;;;;;1.52;1.42;;;15.40;66.60;;;;;;4880013;29;20210;-76
2023/04/29 17:30:34;;;;;;;1.70;1.60;;;15.40;66.50;;;;;;4878277;29;20188;-74
2023/04/29 17:33:04;;;;;;;1.33;1.25;;;15.20;66.70;;;;;;4863081;29;20280;-74
2023/04/29 17:35:31;;;;;;;2.70;1.40;;;15.10;67.20;;;;;;4881176;29;20177;-74
2023/04/29 17:37:57;;;;;;;1.52;1.15;;;14.90;67.80;;;;;;4881451;29;20189;-74
2023/04/29 17:40:24;;;;;;;1.50;1.48;;;14.90;67.10;;;;;;4862934;29;20746;-75
2023/04/29 17:42:50;;;;;;;1.05;1.00;;;14.90;67.50;;;;;;4850550;29;20210;-74
2023/04/29 17:45:16;;;;;;;1.75;1.65;;;14.80;68.00;;;;;;4864399;29;20217;-75
2023/04/29 17:47:42;;;;;;;1.30;1.30;;;14.80;68.10;;;;;;4862681;29;20236;-75
2023/04/29 17:50:08;;;;;;;3.78;1.35;;;14.70;68.70;;;;;;4865747;29;20244;-74
2023/04/29 17:52:33;;;;;;;2.67;1.40;;;14.90;67.70;;;;;;4865767;29;20229;-74
2023/04/29 17:54:59;;;;;;;1.02;1.02;;;15.00;67.40;;;;;;4873423;29;20216;-75
2023/04/29 17:57:25;;;;;;;2.47;1.33;;;15.00;67.90;;;;;;4870595;29;20609;-74